createdAt,value
2022-10-11T00:01:00.644Z,14.70
2022-10-11T00:03:36.139Z,13.30
2022-10-11T00:06:06.276Z,16.00
2022-10-11T00:08:35.804Z,13.20
2022-10-11T00:11:07.078Z,13.90
2022-10-11T00:13:35.539Z,12.60
2022-10-11T00:16:08.974Z,8.70
2022-10-11T00:18:38.113Z,16.30
2022-10-11T00:21:09.710Z,15.60
2022-10-11T00:23:38.137Z,15.90
2022-10-11T00:26:09.302Z,15.40
2022-10-11T00:28:38.794Z,16.50
2022-10-11T00:31:09.823Z,15.80
2022-10-11T00:33:38.011Z,15.10
2022-10-11T00:36:07.596Z,12.90
2022-10-11T00:38:36.358Z,12.00
2022-10-11T00:41:04.410Z,12.50
2022-10-11T00:43:33.342Z,12.40
2022-10-11T00:46:13.706Z,8.90
2022-10-11T00:49:02.036Z,11.00
2022-10-11T00:51:39.427Z,11.50
2022-10-11T00:54:13.928Z,12.60
2022-10-11T00:56:46.010Z,12.00
2022-10-11T00:59:21.642Z,12.20
2022-10-11T01:01:50.153Z,11.50
2022-10-11T01:04:18.407Z,10.00
2022-10-11T01:06:47.829Z,10.20
2022-10-11T01:09:16.025Z,11.00
2022-10-11T01:11:45.149Z,7.70
2022-10-11T01:14:38.643Z,12.60
2022-10-11T01:17:39.798Z,12.80
2022-10-11T01:20:23.555Z,6.70
2022-10-11T01:23:22.671Z,9.40
2022-10-11T01:25:53.867Z,10.80
2022-10-11T01:28:28.127Z,6.70
2022-10-11T01:31:03.791Z,11.10
2022-10-11T01:33:56.413Z,9.00
2022-10-11T01:36:33.609Z,7.10
2022-10-11T01:39:14.804Z,11.00
2022-10-11T01:42:05.477Z,10.50
2022-10-11T01:44:35.838Z,11.20
2022-10-11T01:47:03.949Z,6.80
2022-10-11T01:49:31.994Z,11.60
2022-10-11T01:52:04.251Z,8.90
2022-10-11T01:54:56.572Z,15.20
2022-10-11T01:58:03.753Z,6.90
2022-10-11T02:00:45.377Z,11.80
2022-10-11T02:03:21.997Z,6.80
2022-10-11T02:05:54.941Z,13.30
2022-10-11T02:08:53.973Z,11.30
2022-10-11T02:11:31.657Z,13.60
2022-10-11T02:14:03.037Z,10.80
2022-10-11T02:17:08.732Z,19.20
2022-10-11T02:19:43.183Z,8.20
2022-10-11T02:22:22.649Z,12.70
2022-10-11T02:24:54.241Z,10.70
2022-10-11T02:27:26.842Z,24.60
2022-10-11T02:29:56.942Z,12.30
2022-10-11T02:32:26.734Z,10.50
2022-10-11T02:34:57.832Z,10.70
2022-10-11T02:37:50.658Z,6.90
2022-10-11T02:40:25.474Z,10.00
2022-10-11T02:43:18.470Z,6.90
2022-10-11T02:45:58.094Z,17.60
2022-10-11T02:48:29.499Z,12.80
2022-10-11T02:50:58.728Z,10.30
2022-10-11T02:53:27.391Z,10.80
2022-10-11T02:55:56.236Z,6.60
2022-10-11T02:58:25.732Z,11.10
2022-10-11T03:00:54.011Z,8.00
2022-10-11T03:03:22.135Z,11.70
2022-10-11T03:05:50.122Z,10.20
2022-10-11T03:08:18.426Z,10.00
2022-10-11T03:10:46.438Z,9.60
2022-10-11T03:13:18.095Z,19.80
2022-10-11T03:16:02.357Z,11.90
2022-10-11T03:18:35.642Z,10.30
2022-10-11T03:21:04.017Z,11.00
2022-10-11T03:23:32.409Z,6.70
2022-10-11T03:26:00.595Z,9.40
2022-10-11T03:28:28.929Z,10.70
2022-10-11T03:30:57.438Z,6.60
2022-10-11T03:33:25.791Z,7.10
2022-10-11T03:35:53.894Z,12.70
2022-10-11T03:38:22.912Z,11.90
2022-10-11T03:40:51.075Z,10.50
2022-10-11T03:43:19.256Z,11.20
2022-10-11T03:45:47.331Z,6.40
2022-10-11T03:48:15.490Z,10.60
2022-10-11T03:50:43.588Z,10.30
2022-10-11T03:53:11.791Z,6.10
2022-10-11T03:55:41.151Z,9.70
2022-10-11T03:58:09.702Z,14.00
2022-10-11T04:00:37.975Z,20.30
2022-10-11T04:03:06.064Z,20.50
2022-10-11T04:05:34.169Z,12.00
2022-10-11T04:08:02.345Z,9.80
2022-10-11T04:10:33.537Z,18.60
2022-10-11T04:13:01.756Z,16.10
2022-10-11T04:15:29.734Z,12.70
2022-10-11T04:17:57.876Z,12.00
2022-10-11T04:20:26.007Z,19.40
2022-10-11T04:22:56.298Z,8.20
2022-10-11T04:25:24.789Z,12.90
2022-10-11T04:27:52.843Z,12.00
2022-10-11T04:30:21.290Z,11.20
2022-10-11T04:32:49.796Z,10.60
2022-10-11T04:35:17.990Z,11.60
2022-10-11T04:37:47.281Z,10.20
2022-10-11T04:40:15.469Z,14.80
2022-10-11T04:42:44.023Z,13.60
2022-10-11T04:45:12.122Z,14.00
2022-10-11T04:47:41.277Z,13.20
2022-10-11T04:50:09.623Z,12.70
2022-10-11T04:52:44.965Z,12.80
2022-10-11T04:55:16.529Z,12.30
2022-10-11T04:57:50.189Z,14.50
2022-10-11T05:00:19.181Z,19.00
2022-10-11T05:02:48.212Z,14.40
2022-10-11T05:05:17.969Z,16.70
2022-10-11T05:07:47.955Z,14.30
2022-10-11T05:10:19.138Z,14.20
2022-10-11T05:12:47.731Z,11.40
2022-10-11T05:15:19.976Z,12.00
2022-10-11T05:17:49.075Z,12.80
2022-10-11T05:20:17.960Z,13.80
2022-10-11T05:22:46.417Z,13.60
2022-10-11T05:28:06.728Z,14.60
2022-10-11T05:30:39.866Z,14.50
2022-10-11T05:33:19.051Z,13.70
2022-10-11T05:36:04.583Z,14.60
2022-10-11T05:38:42.127Z,14.60
2022-10-11T05:41:17.110Z,12.40
2022-10-11T05:43:52.369Z,13.20
2022-10-11T05:46:24.288Z,12.10
2022-10-11T05:49:02.200Z,13.10
2022-10-11T05:51:44.456Z,15.30
2022-10-11T07:53:15.786Z,10.30
2022-10-11T08:20:51.979Z,13.80
2022-10-11T08:23:28.107Z,11.70
2022-10-11T08:26:01.692Z,9.10
2022-10-11T08:28:31.968Z,8.60
2022-10-11T08:31:08.017Z,7.70
2022-10-11T08:33:59.865Z,7.70
2022-10-11T08:36:45.052Z,8.60
2022-10-11T08:39:36.381Z,8.10
2022-10-11T08:42:54.890Z,8.60
2022-10-11T08:45:56.803Z,7.80
2022-10-11T08:49:15.675Z,7.90
2022-10-11T10:08:10.466Z,5.50
2022-10-11T10:13:38.241Z,6.20
2022-10-11T10:16:35.419Z,6.40
2022-10-11T10:19:33.535Z,6.10
2022-10-11T10:22:20.948Z,5.30
2022-10-11T10:24:53.623Z,5.20
2022-10-11T10:30:08.379Z,5.90
2022-10-11T10:32:57.371Z,5.80
2022-10-11T10:35:32.053Z,6.70
2022-10-11T10:40:57.175Z,6.70
2022-10-11T10:43:30.734Z,6.30
2022-10-11T10:46:51.736Z,6.40
2022-10-11T10:50:00.364Z,6.50
2022-10-11T10:53:02.207Z,10.80
2022-10-11T10:55:46.464Z,6.90
2022-10-11T10:58:52.889Z,7.10
2022-10-11T11:01:30.692Z,7.30
2022-10-11T11:04:25.445Z,7.20
2022-10-11T11:07:25.202Z,7.30
2022-10-11T11:10:23.467Z,11.50
2022-10-11T11:13:13.146Z,7.80
2022-10-11T11:15:45.310Z,36.40
2022-10-11T11:18:20.591Z,10.90
2022-10-11T11:23:42.552Z,8.70
2022-10-11T11:26:29.610Z,7.60
2022-10-11T11:29:20.216Z,8.10
2022-10-11T11:32:07.228Z,7.80
2022-10-11T11:34:43.171Z,7.50
2022-10-11T11:37:28.716Z,8.00
2022-10-11T11:40:22.818Z,7.10
2022-10-11T11:43:01.728Z,7.80
2022-10-11T11:45:49.369Z,7.40
2022-10-11T11:48:26.762Z,7.40
2022-10-11T11:51:05.331Z,7.70
2022-10-11T11:53:51.224Z,7.40
2022-10-11T11:56:27.249Z,8.10
2022-10-11T11:59:06.380Z,7.20
2022-10-11T12:01:49.343Z,7.90
2022-10-11T12:04:40.713Z,7.00
2022-10-11T12:07:21.061Z,8.50
2022-10-11T12:09:54.629Z,7.00
2022-10-11T12:12:34.056Z,8.10
2022-10-11T12:15:17.030Z,8.90
2022-10-11T12:17:58.646Z,8.50
2022-10-11T12:20:38.070Z,8.40
2022-10-11T12:23:30.462Z,8.10
2022-10-11T12:26:19.902Z,8.10
2022-10-11T12:29:02.208Z,7.20
2022-10-11T12:31:36.937Z,7.60
2022-10-11T12:34:07.953Z,7.40
2022-10-11T12:36:44.276Z,7.50
2022-10-11T12:39:18.639Z,8.00
2022-10-11T12:41:47.570Z,7.60
2022-10-11T12:44:18.407Z,7.80
2022-10-11T12:46:55.182Z,7.80
2022-10-11T12:49:38.572Z,8.10
2022-10-11T12:52:40.651Z,7.70
2022-10-11T12:55:35.621Z,6.70
2022-10-11T12:58:23.662Z,8.00
2022-10-11T13:00:58.151Z,7.50
2022-10-11T13:03:42.173Z,9.90
2022-10-11T13:06:28.557Z,8.30
2022-10-11T13:09:05.966Z,8.60
2022-10-11T13:11:40.647Z,8.20
2022-10-11T13:17:06.703Z,8.30
2022-10-11T13:19:38.151Z,10.80
2022-10-11T13:22:23.417Z,10.80
2022-10-11T13:24:58.191Z,13.00
2022-10-11T13:27:28.071Z,10.10
2022-10-11T13:30:01.211Z,10.00
2022-10-11T13:32:31.960Z,8.30
2022-10-11T13:35:07.108Z,11.20
2022-10-11T13:37:45.018Z,11.90
2022-10-11T13:40:16.609Z,12.10
2022-10-11T13:42:46.279Z,9.70
2022-10-11T13:45:19.476Z,10.00
2022-10-11T13:47:49.095Z,12.90
2022-10-11T13:50:23.653Z,14.70
2022-10-11T13:52:57.539Z,13.50
2022-10-11T13:55:29.106Z,12.10
2022-10-11T13:58:00.816Z,11.30
2022-10-11T14:03:15.911Z,9.30
2022-10-11T14:05:53.616Z,10.70
2022-10-11T14:08:44.183Z,11.50
2022-10-11T14:11:14.888Z,22.50
2022-10-11T14:13:44.958Z,14.20
2022-10-11T14:16:16.929Z,10.70
2022-10-11T14:18:49.109Z,11.30
2022-10-11T14:21:20.494Z,8.70
2022-10-11T14:23:53.086Z,10.20
2022-10-11T14:26:23.180Z,10.90
2022-10-11T14:28:58.987Z,11.80
2022-10-11T14:31:32.313Z,14.80
2022-10-11T14:34:00.711Z,14.50
2022-10-11T14:36:28.885Z,11.30
2022-10-11T14:38:57.085Z,10.90
2022-10-11T14:41:25.159Z,13.50
2022-10-11T14:43:56.478Z,12.50
2022-10-11T14:46:26.877Z,10.20
2022-10-11T14:48:56.520Z,10.10
2022-10-11T14:51:31.233Z,11.20
2022-10-11T14:53:59.425Z,10.60
2022-10-11T14:56:27.520Z,10.50
2022-10-11T14:58:55.730Z,11.60
2022-10-11T15:01:23.858Z,11.80
2022-10-11T15:03:51.977Z,11.00
2022-10-11T15:06:24.563Z,12.90
2022-10-11T15:08:52.699Z,15.00
2022-10-11T15:11:22.422Z,13.40
2022-10-11T15:13:50.713Z,22.50
2022-10-11T15:16:20.546Z,17.10
2022-10-11T15:18:51.986Z,21.10
2022-10-11T15:21:22.819Z,15.70
2022-10-11T15:23:54.578Z,15.40
2022-10-11T15:26:26.229Z,18.80
2022-10-11T15:28:56.533Z,19.40
2022-10-11T15:31:24.735Z,20.00
2022-10-11T15:33:53.047Z,18.00
2022-10-11T15:36:22.952Z,14.80
2022-10-11T15:38:51.564Z,15.90
2022-10-11T15:41:20.238Z,23.20
2022-10-11T15:43:49.915Z,22.80
2022-10-11T15:46:22.189Z,26.60
2022-10-11T15:48:51.932Z,42.80
2022-10-11T15:51:21.166Z,28.30
2022-10-11T15:53:49.326Z,29.60
2022-10-11T15:56:19.049Z,27.60
2022-10-11T15:58:47.299Z,24.20
2022-10-11T16:01:20.142Z,27.30
2022-10-11T16:03:49.850Z,31.70
2022-10-11T16:06:19.184Z,31.30
2022-10-11T16:08:48.074Z,27.30
2022-10-11T16:11:16.311Z,27.50
2022-10-11T16:13:45.340Z,34.50
2022-10-11T16:16:13.548Z,149.40
2022-10-11T16:18:41.846Z,75.70
2022-10-11T16:21:15.579Z,56.00
2022-10-11T16:23:43.637Z,43.10
2022-10-11T16:26:14.243Z,31.60
2022-10-11T16:28:42.817Z,39.30
2022-10-11T16:31:16.944Z,27.50
2022-10-11T16:33:48.138Z,15.30
2022-10-11T16:36:36.628Z,16.10
2022-10-11T16:39:09.432Z,19.10
2022-10-11T16:41:37.696Z,28.00
2022-10-11T16:44:07.040Z,35.20
2022-10-11T16:46:35.186Z,41.80
2022-10-11T16:49:03.651Z,39.80
2022-10-11T16:51:32.049Z,33.00
2022-10-11T16:54:01.211Z,23.00
2022-10-11T16:58:57.511Z,40.60
2022-10-11T17:01:26.198Z,35.70
2022-10-11T17:03:54.370Z,45.40
2022-10-11T17:06:22.985Z,33.60
2022-10-11T17:08:51.113Z,31.90
2022-10-11T17:11:19.310Z,30.80
2022-10-11T17:13:47.633Z,31.60
2022-10-11T17:16:17.605Z,36.40
2022-10-11T17:18:46.295Z,36.10
2022-10-11T17:21:16.721Z,36.30
2022-10-11T17:23:45.450Z,35.20
2022-10-11T17:26:24.988Z,35.30
2022-10-11T17:28:57.703Z,52.80
2022-10-11T17:31:27.063Z,45.90
2022-10-11T17:33:58.583Z,28.20
2022-10-11T17:36:34.856Z,28.60
2022-10-11T17:39:08.845Z,36.20
2022-10-11T17:41:37.178Z,31.70
2022-10-11T17:44:05.504Z,40.80
2022-10-11T17:46:34.029Z,27.30
2022-10-11T17:49:04.979Z,33.90
2022-10-11T17:51:35.469Z,31.10
2022-10-11T17:54:04.749Z,29.80
2022-10-11T17:56:37.649Z,35.40
2022-10-11T17:59:07.117Z,26.40
2022-10-11T18:01:35.917Z,28.30
2022-10-11T18:04:06.378Z,22.20
2022-10-11T18:06:39.977Z,20.40
2022-10-11T18:09:08.133Z,20.30
2022-10-11T18:11:36.259Z,33.70
2022-10-11T18:14:05.450Z,39.10
2022-10-11T18:16:34.489Z,44.40
2022-10-11T18:19:07.878Z,48.50
2022-10-11T18:21:37.900Z,44.40
2022-10-11T18:24:11.025Z,52.70
2022-10-11T18:26:39.460Z,29.00
2022-10-11T18:29:07.890Z,41.50
2022-10-11T18:31:36.077Z,45.40
2022-10-11T18:34:05.422Z,23.20
2022-10-11T18:36:33.419Z,19.00
2022-10-11T18:39:04.356Z,21.50
2022-10-11T18:41:34.138Z,21.60
2022-10-11T18:44:05.272Z,21.60
2022-10-11T18:46:34.390Z,17.60
2022-10-11T18:49:03.155Z,18.40
2022-10-11T18:51:34.324Z,18.50
2022-10-11T18:54:02.887Z,24.90
2022-10-11T18:56:32.799Z,21.40
2022-10-11T18:59:01.557Z,19.70
2022-10-11T19:01:34.578Z,24.00
2022-10-11T19:04:04.668Z,22.80
2022-10-11T19:06:38.839Z,22.70
2022-10-11T19:09:13.317Z,42.50
2022-10-11T19:11:41.883Z,35.70
2022-10-11T19:14:14.613Z,30.50
2022-10-11T19:16:46.475Z,28.40
2022-10-11T19:19:14.581Z,25.50
2022-10-11T19:21:43.154Z,25.70
2022-10-11T19:24:11.334Z,32.40
2022-10-11T19:26:41.045Z,30.70
2022-10-11T19:29:15.063Z,28.20
2022-10-11T19:31:45.723Z,23.20
2022-10-11T19:34:14.019Z,22.70
2022-10-11T19:36:43.012Z,23.00
2022-10-11T19:39:16.494Z,138.00
2022-10-11T19:41:45.190Z,64.00
2022-10-11T19:44:14.733Z,35.70
2022-10-11T19:46:52.033Z,31.90
2022-10-11T19:49:25.157Z,26.40
2022-10-11T19:51:55.560Z,21.80
2022-10-11T19:54:24.171Z,22.40
2022-10-11T19:56:52.819Z,21.60
2022-10-11T19:59:21.000Z,29.70
2022-10-11T20:01:52.720Z,34.90
2022-10-11T20:04:50.656Z,26.80
2022-10-11T20:07:10.735Z,25.20
2022-10-11T20:09:39.089Z,22.30
2022-10-11T20:12:07.607Z,24.40
2022-10-11T20:14:35.718Z,25.20
2022-10-11T20:17:04.028Z,25.10
2022-10-11T20:19:32.118Z,25.70
2022-10-11T20:22:01.083Z,26.70
2022-10-11T20:24:33.350Z,25.40
2022-10-11T20:27:05.639Z,23.80
2022-10-11T20:29:34.110Z,29.00
2022-10-11T20:32:02.292Z,30.20
2022-10-11T20:34:31.104Z,30.60
2022-10-11T20:36:59.695Z,31.50
2022-10-11T20:39:27.755Z,30.60
2022-10-11T20:41:55.780Z,30.10
2022-10-11T20:44:24.028Z,30.70
2022-10-11T20:46:52.093Z,31.50
2022-10-11T20:49:20.746Z,31.00
2022-10-11T20:51:49.499Z,30.90
2022-10-11T20:54:17.522Z,32.90
2022-10-11T20:56:46.078Z,29.80
2022-10-11T20:59:14.171Z,29.50
2022-10-11T21:01:43.225Z,29.50
2022-10-11T21:04:18.505Z,28.70
2022-10-11T21:06:48.442Z,27.60
2022-10-11T21:09:17.587Z,28.00
2022-10-11T21:11:46.489Z,26.80
2022-10-11T21:14:15.087Z,28.00
2022-10-11T21:16:43.268Z,28.60
2022-10-11T21:19:15.289Z,29.00
2022-10-11T21:21:46.507Z,27.20
2022-10-11T21:26:45.855Z,29.30
2022-10-11T21:29:14.228Z,29.10
2022-10-11T21:31:42.209Z,29.80
2022-10-11T21:34:10.226Z,30.80
2022-10-11T21:36:38.470Z,31.70
2022-10-11T21:39:06.497Z,30.70
2022-10-11T21:41:35.386Z,30.10
2022-10-11T21:44:03.585Z,29.90
2022-10-11T21:46:54.463Z,31.30
2022-10-11T21:49:20.703Z,29.30
2022-10-11T21:51:48.833Z,25.10
2022-10-11T21:54:17.303Z,27.30
2022-10-11T21:56:45.451Z,30.80
2022-10-11T21:59:14.146Z,32.70
2022-10-11T22:01:43.429Z,27.90
2022-10-11T22:04:12.192Z,27.50
2022-10-11T22:06:40.705Z,23.80
2022-10-11T22:09:08.940Z,25.20
2022-10-11T22:11:37.553Z,24.90
2022-10-11T22:14:05.948Z,34.90
2022-10-11T22:16:35.285Z,50.70
2022-10-11T22:19:03.757Z,34.00
2022-10-11T22:21:32.156Z,50.40
2022-10-11T22:24:00.364Z,30.60
2022-10-11T22:26:30.979Z,33.30
2022-10-11T22:29:00.618Z,27.50
2022-10-11T22:31:29.674Z,28.60
2022-10-11T22:33:59.406Z,46.40
2022-10-11T22:36:30.622Z,49.60
2022-10-11T22:38:59.294Z,36.20
2022-10-11T22:41:27.329Z,31.90
2022-10-11T22:43:55.368Z,29.20
2022-10-11T22:46:23.602Z,21.80
2022-10-11T22:48:51.782Z,19.00
2022-10-11T22:51:20.005Z,22.90
2022-10-11T22:53:48.642Z,20.60
2022-10-11T22:56:16.765Z,19.50
2022-10-11T22:58:44.868Z,18.60
2022-10-11T23:01:15.987Z,18.90
2022-10-11T23:03:48.518Z,18.20
2022-10-11T23:06:17.333Z,15.60
2022-10-11T23:08:45.393Z,22.40
2022-10-11T23:11:13.694Z,16.30
2022-10-11T23:13:41.791Z,16.50
2022-10-11T23:16:12.201Z,15.40
2022-10-11T23:18:40.489Z,14.90
2022-10-11T23:21:08.977Z,15.10
2022-10-11T23:23:39.902Z,14.60
2022-10-11T23:26:13.871Z,14.50
2022-10-11T23:28:43.322Z,14.10
2022-10-11T23:31:18.853Z,15.90
2022-10-11T23:33:48.090Z,18.50
2022-10-11T23:36:21.811Z,19.10
2022-10-11T23:38:53.980Z,16.30
2022-10-11T23:41:23.641Z,16.40
2022-10-11T23:43:52.661Z,16.60
2022-10-11T23:46:21.028Z,20.50
2022-10-11T23:48:49.163Z,17.30
2022-10-11T23:51:17.350Z,14.90
2022-10-11T23:53:45.544Z,16.00
2022-10-11T23:56:13.861Z,17.00
2022-10-11T23:58:42.027Z,16.60
